createdAt,value
2019-05-01T00:01:01.447Z,16.90
2019-05-01T00:03:50.749Z,16.90
2019-05-01T00:06:22.329Z,16.90
2019-05-01T00:08:52.184Z,16.80
2019-05-01T00:11:22.055Z,16.80
2019-05-01T00:13:51.927Z,16.80
2019-05-01T00:16:21.808Z,16.80
2019-05-01T00:18:52.015Z,16.70
2019-05-01T00:21:22.030Z,16.70
2019-05-01T00:23:51.818Z,16.70
2019-05-01T00:26:22.043Z,16.60
2019-05-01T00:28:51.904Z,16.60
2019-05-01T00:31:21.860Z,16.60
2019-05-01T00:33:51.671Z,16.60
2019-05-01T00:36:21.910Z,16.50
2019-05-01T00:38:51.913Z,16.50
2019-05-01T00:41:21.855Z,16.50
2019-05-01T00:43:51.782Z,16.40
2019-05-01T00:46:21.647Z,16.40
2019-05-01T00:48:51.663Z,16.30
2019-05-01T00:51:21.467Z,16.30
2019-05-01T00:53:51.469Z,16.20
2019-05-01T00:56:25.983Z,16.20
2019-05-01T00:58:59.879Z,16.20
2019-05-01T01:01:31.495Z,16.20
2019-05-01T01:04:01.373Z,16.10
2019-05-01T01:06:31.182Z,16.10
2019-05-01T01:09:01.048Z,16.10
2019-05-01T01:11:32.535Z,16.00
2019-05-01T01:14:02.401Z,16.10
2019-05-01T01:16:33.281Z,16.00
2019-05-01T01:19:03.356Z,16.00
2019-05-01T01:21:33.228Z,16.00
2019-05-01T01:24:03.030Z,16.00
2019-05-01T01:26:34.046Z,16.00
2019-05-01T01:29:03.901Z,16.00
2019-05-01T01:31:33.711Z,16.00
2019-05-01T01:34:03.660Z,15.90
2019-05-01T01:36:33.599Z,16.00
2019-05-01T01:39:04.764Z,15.90
2019-05-01T01:41:35.799Z,15.90
2019-05-01T01:44:19.280Z,15.90
2019-05-01T01:46:51.052Z,15.90
2019-05-01T01:49:20.918Z,15.90
2019-05-01T01:51:51.168Z,15.80
2019-05-01T01:54:20.984Z,15.90
2019-05-01T01:56:50.980Z,15.80
2019-05-01T01:59:20.849Z,15.80
2019-05-01T02:01:55.280Z,15.80
2019-05-01T02:04:29.456Z,15.80
2019-05-01T02:06:59.403Z,15.70
2019-05-01T02:09:29.403Z,15.70
2019-05-01T02:11:59.350Z,15.70
2019-05-01T02:14:29.149Z,15.70
2019-05-01T02:16:59.008Z,15.70
2019-05-01T02:19:28.809Z,15.70
2019-05-01T02:21:58.624Z,15.70
2019-05-01T02:24:28.487Z,15.70
2019-05-01T02:27:06.237Z,15.70
2019-05-01T02:29:40.776Z,15.70
2019-05-01T02:32:10.574Z,15.70
2019-05-01T02:34:40.505Z,15.60
2019-05-01T02:37:10.384Z,15.60
2019-05-01T02:39:40.679Z,15.60
2019-05-01T02:42:10.466Z,15.60
2019-05-01T02:44:46.577Z,15.50
2019-05-01T02:47:19.717Z,15.50
2019-05-01T02:49:57.818Z,15.50
2019-05-01T02:52:29.791Z,15.40
2019-05-01T02:55:00.309Z,15.40
2019-05-01T02:57:30.247Z,15.40
2019-05-01T03:00:00.130Z,15.40
2019-05-01T03:02:29.929Z,15.40
2019-05-01T03:04:59.720Z,15.40
2019-05-01T03:07:31.142Z,15.30
2019-05-01T03:10:00.952Z,15.30
2019-05-01T03:12:30.866Z,15.30
2019-05-01T03:15:00.656Z,15.30
2019-05-01T03:17:43.892Z,15.20
2019-05-01T03:20:27.058Z,15.20
2019-05-01T03:23:15.536Z,15.20
2019-05-01T03:25:45.478Z,15.20
2019-05-01T03:28:15.272Z,15.10
2019-05-01T03:30:45.149Z,15.10
2019-05-01T03:33:16.145Z,15.00
2019-05-01T03:35:45.953Z,15.00
2019-05-01T03:38:15.819Z,14.90
2019-05-01T03:40:45.630Z,14.90
2019-05-01T03:43:15.515Z,14.90
2019-05-01T03:45:45.380Z,14.90
2019-05-01T03:48:15.323Z,14.90
2019-05-01T03:50:47.097Z,14.80
2019-05-01T03:53:17.196Z,14.80
2019-05-01T03:55:47.143Z,14.80
2019-05-01T03:58:20.784Z,14.80
2019-05-01T04:00:55.020Z,14.80
2019-05-01T04:03:36.956Z,14.80
2019-05-01T04:06:12.978Z,14.80
2019-05-01T04:08:46.040Z,14.70
2019-05-01T04:11:15.866Z,14.70
2019-05-01T04:13:45.729Z,14.70
2019-05-01T04:16:16.381Z,14.60
2019-05-01T04:18:46.372Z,14.60
2019-05-01T04:21:16.588Z,14.60
2019-05-01T04:23:46.444Z,14.60
2019-05-01T04:26:20.882Z,14.60
2019-05-01T04:28:52.467Z,14.60
2019-05-01T04:31:32.627Z,14.60
2019-05-01T04:34:04.207Z,14.60
2019-05-01T04:36:40.426Z,14.60
2019-05-01T04:39:10.304Z,14.60
2019-05-01T04:41:40.128Z,14.60
2019-05-01T04:44:10.061Z,14.60
2019-05-01T04:46:41.629Z,14.60
2019-05-01T04:49:11.497Z,14.60
2019-05-01T04:51:41.440Z,14.60
2019-05-01T04:54:11.230Z,14.70
2019-05-01T04:56:41.116Z,14.70
2019-05-01T04:59:10.997Z,14.70
2019-05-01T05:02:00.900Z,14.80
2019-05-01T05:04:30.787Z,14.90
2019-05-01T05:07:00.943Z,15.10
2019-05-01T05:09:43.825Z,15.20
2019-05-01T05:12:15.612Z,15.30
2019-05-01T05:14:52.916Z,15.40
2019-05-01T05:17:26.753Z,15.60
2019-05-01T05:19:56.795Z,15.80
2019-05-01T05:22:26.620Z,16.00
2019-05-01T05:24:56.556Z,16.20
2019-05-01T05:27:26.426Z,16.40
2019-05-01T05:29:57.469Z,16.60
2019-05-01T05:32:28.112Z,16.80
2019-05-01T05:34:58.088Z,17.00
2019-05-01T05:37:32.260Z,17.20
2019-05-01T05:40:02.083Z,17.40
2019-05-01T05:42:31.967Z,17.60
2019-05-01T05:45:01.767Z,17.80
2019-05-01T05:47:31.719Z,18.00
2019-05-01T05:50:01.644Z,18.10
2019-05-01T05:52:39.222Z,18.20
2019-05-01T05:55:10.649Z,18.30
2019-05-01T05:57:58.189Z,18.50
2019-05-01T06:00:36.428Z,18.70
2019-05-01T06:03:07.871Z,18.80
2019-05-01T06:05:48.622Z,19.00
2019-05-01T06:08:23.009Z,19.20
2019-05-01T06:10:58.568Z,19.30
2019-05-01T06:13:46.102Z,19.50
2019-05-01T06:16:24.428Z,19.60
2019-05-01T06:19:14.680Z,19.90
2019-05-01T06:21:45.538Z,20.00
2019-05-01T06:24:19.903Z,20.20
2019-05-01T06:26:49.819Z,20.30
2019-05-01T06:29:19.628Z,20.50
2019-05-01T06:31:53.951Z,20.70
2019-05-01T06:34:28.684Z,20.90
2019-05-01T06:36:55.956Z,21.20
2019-05-01T06:39:25.843Z,21.40
2019-05-01T06:41:55.722Z,21.60
2019-05-01T06:44:33.397Z,21.80
2019-05-01T06:47:04.971Z,22.00
2019-05-01T06:49:36.361Z,22.20
2019-05-01T06:52:06.761Z,22.40
2019-05-01T06:54:36.629Z,22.50
2019-05-01T06:57:06.574Z,22.70
2019-05-01T06:59:36.374Z,22.80
2019-05-01T07:02:06.503Z,23.00
2019-05-01T07:04:38.127Z,23.10
2019-05-01T07:07:18.574Z,23.30
2019-05-01T07:09:44.197Z,23.40
2019-05-01T07:12:13.210Z,23.60
2019-05-01T07:14:47.149Z,23.70
2019-05-01T07:17:15.158Z,23.90
2019-05-01T07:19:55.588Z,24.10
2019-05-01T07:22:25.394Z,24.20
2019-05-01T07:24:58.964Z,24.40
2019-05-01T07:27:27.077Z,24.60
2019-05-01T07:29:58.514Z,24.80
2019-05-01T07:32:28.342Z,25.00
2019-05-01T07:35:01.940Z,25.10
2019-05-01T07:37:29.789Z,25.30
2019-05-01T07:39:59.647Z,25.40
2019-05-01T07:42:31.114Z,25.60
2019-05-01T07:45:08.296Z,25.70
2019-05-01T07:47:44.723Z,25.90
2019-05-01T07:50:15.658Z,26.00
2019-05-01T07:52:47.686Z,26.10
2019-05-01T07:55:20.082Z,26.20
2019-05-01T07:57:50.104Z,26.20
2019-05-01T08:00:36.920Z,25.90
2019-05-01T08:03:07.160Z,26.00
2019-05-01T08:05:40.800Z,25.90
2019-05-01T08:08:09.580Z,25.70
2019-05-01T08:10:39.480Z,25.50
2019-05-01T08:13:09.356Z,25.30
2019-05-01T08:15:39.216Z,25.10
2019-05-01T08:18:13.449Z,25.10
2019-05-01T08:20:56.960Z,25.10
2019-05-01T08:23:26.819Z,25.00
2019-05-01T08:25:56.681Z,25.00
2019-05-01T08:28:44.792Z,25.00
2019-05-01T08:31:32.739Z,24.90
2019-05-01T08:34:13.115Z,24.80
2019-05-01T08:36:47.164Z,24.80
2019-05-01T08:39:14.771Z,24.70
2019-05-01T08:41:44.632Z,24.70
2019-05-01T08:44:14.660Z,24.80
2019-05-01T08:46:50.959Z,24.90
2019-05-01T08:49:37.326Z,25.00
2019-05-01T08:52:12.590Z,25.00
2019-05-01T08:54:38.740Z,25.00
2019-05-01T08:57:08.614Z,25.10
2019-05-01T08:59:38.563Z,25.20
2019-05-01T09:02:09.783Z,25.30
2019-05-01T09:04:39.755Z,25.30
2019-05-01T09:07:09.554Z,25.40
2019-05-01T09:09:44.850Z,25.30
2019-05-01T09:12:11.885Z,25.30
2019-05-01T09:14:42.409Z,25.30
2019-05-01T09:17:12.209Z,25.30
2019-05-01T09:19:42.534Z,25.40
2019-05-01T09:22:12.324Z,25.40
2019-05-01T09:24:42.265Z,25.30
2019-05-01T09:27:24.051Z,25.30
2019-05-01T09:29:54.849Z,25.20
2019-05-01T09:32:25.173Z,25.10
2019-05-01T09:34:58.024Z,25.10
2019-05-01T09:37:26.460Z,25.10
2019-05-01T09:39:56.401Z,25.30
2019-05-01T09:42:26.672Z,25.50
2019-05-01T09:44:56.927Z,25.60
2019-05-01T09:47:27.065Z,25.60
2019-05-01T09:49:58.020Z,25.60
2019-05-01T09:52:45.849Z,25.60
2019-05-01T09:55:23.207Z,25.60
2019-05-01T09:57:51.693Z,25.50
2019-05-01T10:00:29.194Z,25.50
2019-05-01T10:02:59.052Z,25.40
2019-05-01T10:05:29.405Z,25.30
2019-05-01T10:08:00.039Z,25.20
2019-05-01T10:10:30.862Z,25.10
2019-05-01T10:13:00.752Z,25.00
2019-05-01T10:15:30.686Z,25.00
2019-05-01T10:18:00.552Z,25.00
2019-05-01T10:20:30.488Z,25.10
2019-05-01T10:23:00.379Z,25.10
2019-05-01T10:25:30.189Z,25.00
2019-05-01T10:28:17.413Z,25.00
2019-05-01T10:31:06.933Z,25.00
2019-05-01T10:33:38.848Z,25.00
2019-05-01T10:36:26.847Z,25.10
2019-05-01T10:38:56.713Z,25.00
2019-05-01T10:41:26.529Z,24.80
2019-05-01T10:43:56.694Z,24.80
2019-05-01T10:46:26.549Z,24.80
2019-05-01T10:48:57.475Z,24.70
2019-05-01T10:51:27.510Z,24.80
2019-05-01T10:53:57.322Z,24.80
2019-05-01T10:56:27.116Z,24.80
2019-05-01T10:58:56.993Z,24.80
2019-05-01T11:01:34.295Z,24.70
2019-05-01T11:04:04.236Z,24.70
2019-05-01T11:06:34.173Z,24.60
2019-05-01T11:09:05.684Z,24.50
2019-05-01T11:11:36.083Z,24.50
2019-05-01T11:14:05.958Z,24.40
2019-05-01T11:16:35.962Z,24.40
2019-05-01T11:19:06.077Z,24.30
2019-05-01T11:21:36.080Z,24.20
2019-05-01T11:24:05.877Z,24.20
2019-05-01T11:26:35.766Z,24.00
2019-05-01T11:29:05.717Z,23.90
2019-05-01T11:31:46.289Z,23.80
2019-05-01T11:34:35.356Z,23.70
2019-05-01T11:37:09.480Z,23.70
2019-05-01T11:39:44.174Z,23.70
2019-05-01T11:42:15.688Z,23.70
2019-05-01T11:44:45.541Z,23.70
2019-05-01T11:47:15.404Z,23.70
2019-05-01T11:49:45.284Z,23.80
2019-05-01T11:52:15.165Z,23.70
2019-05-01T11:54:45.046Z,23.70
2019-05-01T11:57:14.834Z,23.70
2019-05-01T11:59:44.704Z,23.60
2019-05-01T12:02:14.561Z,23.70
2019-05-01T12:04:44.357Z,23.70
2019-05-01T12:07:14.217Z,23.70
2019-05-01T12:09:44.086Z,23.80
2019-05-01T12:12:15.939Z,23.70
2019-05-01T12:14:45.799Z,23.70
2019-05-01T12:17:23.549Z,23.70
2019-05-01T12:19:53.484Z,23.80
2019-05-01T12:22:23.395Z,23.80
2019-05-01T12:24:53.167Z,23.70
2019-05-01T12:27:23.116Z,23.70
2019-05-01T12:29:52.929Z,23.70
2019-05-01T12:32:22.742Z,23.70
2019-05-01T12:34:52.695Z,23.70
2019-05-01T12:37:38.402Z,23.70
2019-05-01T12:40:14.457Z,23.80
2019-05-01T12:42:44.709Z,23.80
2019-05-01T12:45:14.810Z,23.90
2019-05-01T12:47:52.373Z,23.80
2019-05-01T12:50:22.321Z,23.80
2019-05-01T12:52:59.485Z,23.70
2019-05-01T12:55:36.624Z,23.80
2019-05-01T12:58:06.569Z,23.90
2019-05-01T13:00:46.209Z,23.80
2019-05-01T13:03:16.093Z,23.80
2019-05-01T13:05:45.890Z,23.80
2019-05-01T13:08:15.780Z,23.70
2019-05-01T13:10:45.568Z,23.70
2019-05-01T13:13:15.446Z,23.80
2019-05-01T13:15:45.668Z,23.90
2019-05-01T13:18:15.652Z,23.80
2019-05-01T13:20:45.447Z,23.80
2019-05-01T13:23:15.280Z,23.60
2019-05-01T13:25:45.815Z,23.60
2019-05-01T13:28:33.265Z,23.70
2019-05-01T13:31:23.121Z,23.70
2019-05-01T13:33:52.996Z,23.70
2019-05-01T13:36:23.185Z,23.70
2019-05-01T13:38:53.062Z,23.70
2019-05-01T13:41:22.941Z,23.70
2019-05-01T13:43:52.834Z,23.70
2019-05-01T13:46:22.689Z,23.70
2019-05-01T13:48:52.513Z,23.60
2019-05-01T13:51:22.394Z,23.50
2019-05-01T13:53:52.343Z,23.50
2019-05-01T13:56:22.357Z,23.50
2019-05-01T13:58:52.159Z,23.40
2019-05-01T14:01:22.105Z,23.30
2019-05-01T14:03:51.972Z,23.30
2019-05-01T14:09:29.049Z,23.10
2019-05-01T14:11:59.502Z,23.00
2019-05-01T14:14:29.369Z,23.00
2019-05-01T14:16:59.492Z,22.90
2019-05-01T14:19:29.534Z,22.90
2019-05-01T14:22:17.583Z,22.90
2019-05-01T14:24:49.012Z,22.80
2019-05-01T14:27:18.825Z,22.80
2019-05-01T14:29:48.772Z,22.80
2019-05-01T14:32:18.677Z,22.80
2019-05-01T14:34:48.610Z,22.80
2019-05-01T14:37:29.087Z,22.90
2019-05-01T14:39:50.004Z,22.90
2019-05-01T14:42:20.488Z,22.80
2019-05-01T14:44:50.836Z,22.80
2019-05-01T14:47:21.828Z,22.80
2019-05-01T14:49:51.700Z,22.80
2019-05-01T14:52:21.505Z,22.80
2019-05-01T14:54:51.308Z,22.80
2019-05-01T14:57:21.323Z,23.00
2019-05-01T14:59:51.493Z,23.00
2019-05-01T15:02:21.352Z,22.90
2019-05-01T15:04:51.303Z,22.80
2019-05-01T15:07:21.166Z,22.80
2019-05-01T15:09:51.109Z,22.80
2019-05-01T15:12:21.132Z,22.80
2019-05-01T15:14:59.741Z,22.80
2019-05-01T15:17:34.016Z,22.80
2019-05-01T15:20:06.436Z,22.70
2019-05-01T15:22:36.363Z,22.70
2019-05-01T15:25:06.672Z,22.70
2019-05-01T15:27:36.613Z,22.70
2019-05-01T15:30:08.131Z,22.70
2019-05-01T15:32:37.988Z,22.70
2019-05-01T15:35:07.939Z,22.70
2019-05-01T15:37:37.815Z,22.80
2019-05-01T15:40:09.245Z,22.70
2019-05-01T15:42:40.751Z,22.70
2019-05-01T15:45:10.695Z,22.80
2019-05-01T15:47:40.559Z,22.80
2019-05-01T15:50:10.495Z,22.80
2019-05-01T15:52:40.372Z,22.90
2019-05-01T15:55:10.919Z,22.90
2019-05-01T15:57:40.792Z,23.00
2019-05-01T16:00:12.898Z,23.00
2019-05-01T16:02:42.772Z,23.00
2019-05-01T16:05:12.639Z,23.00
2019-05-01T16:07:42.577Z,23.00
2019-05-01T16:10:15.075Z,23.00
2019-05-01T16:12:46.894Z,23.00
2019-05-01T16:15:19.538Z,22.90
2019-05-01T16:17:49.402Z,22.90
2019-05-01T16:20:19.351Z,23.00
2019-05-01T16:22:49.221Z,23.00
2019-05-01T16:25:19.039Z,23.00
2019-05-01T16:27:48.892Z,23.00
2019-05-01T16:30:22.892Z,23.00
2019-05-01T16:32:52.833Z,23.00
2019-05-01T16:35:22.650Z,22.90
2019-05-01T16:37:52.513Z,22.90
2019-05-01T16:40:36.220Z,23.00
2019-05-01T16:43:07.855Z,22.90
2019-05-01T16:45:37.802Z,22.80
2019-05-01T16:48:07.838Z,22.80
2019-05-01T16:50:37.800Z,22.80
2019-05-01T16:53:07.638Z,22.70
2019-05-01T16:55:37.500Z,22.70
2019-05-01T16:58:09.091Z,22.70
2019-05-01T17:00:56.538Z,22.60
2019-05-01T17:03:27.972Z,22.60
2019-05-01T17:05:59.477Z,22.60
2019-05-01T17:08:36.554Z,22.60
2019-05-01T17:11:02.957Z,22.50
2019-05-01T17:13:32.750Z,22.60
2019-05-01T17:16:02.684Z,22.60
2019-05-01T17:18:33.548Z,22.50
2019-05-01T17:21:03.502Z,22.60
2019-05-01T17:23:33.312Z,22.50
2019-05-01T17:26:03.195Z,22.40
2019-05-01T17:28:33.077Z,22.40
2019-05-01T17:31:03.014Z,22.50
2019-05-01T17:33:32.944Z,22.50
2019-05-01T17:36:02.836Z,22.50
2019-05-01T17:38:48.304Z,22.50
2019-05-01T17:41:07.016Z,22.50
2019-05-01T17:43:36.800Z,22.50
2019-05-01T17:46:10.673Z,22.40
2019-05-01T17:48:38.529Z,22.40
2019-05-01T17:51:08.475Z,22.40
2019-05-01T17:53:38.359Z,22.40
2019-05-01T17:56:10.230Z,22.30
2019-05-01T17:58:39.975Z,22.30
2019-05-01T18:01:32.877Z,22.20
2019-05-01T18:04:03.643Z,22.10
2019-05-01T18:06:35.144Z,22.10
2019-05-01T18:09:08.125Z,22.10
2019-05-01T18:11:39.176Z,22.10
2019-05-01T18:14:09.047Z,22.00
2019-05-01T18:16:38.917Z,21.90
2019-05-01T18:19:10.481Z,21.80
2019-05-01T18:21:42.002Z,21.80
2019-05-01T18:24:31.379Z,21.50
2019-05-01T18:27:20.418Z,21.40
2019-05-01T18:29:52.096Z,21.30
2019-05-01T18:32:27.316Z,21.40
2019-05-01T18:34:57.180Z,21.40
2019-05-01T18:37:31.258Z,21.40
2019-05-01T18:40:00.200Z,21.40
2019-05-01T18:42:31.168Z,21.40
2019-05-01T18:45:01.046Z,21.40
2019-05-01T18:47:31.275Z,21.30
2019-05-01T18:50:01.133Z,21.20
2019-05-01T18:52:30.995Z,21.00
2019-05-01T18:55:00.869Z,20.90
2019-05-01T18:57:30.847Z,20.90
2019-05-01T19:00:00.689Z,20.80
2019-05-01T19:02:30.709Z,20.60
2019-05-01T19:05:04.151Z,20.50
2019-05-01T19:07:33.776Z,20.50
2019-05-01T19:10:04.001Z,20.30
2019-05-01T19:12:33.887Z,20.30
2019-05-01T19:15:05.549Z,20.10
2019-05-01T19:17:35.404Z,20.10
2019-05-01T19:20:06.448Z,20.10
2019-05-01T19:22:36.409Z,20.10
2019-05-01T19:25:10.880Z,20.10
2019-05-01T19:27:38.004Z,20.20
2019-05-01T19:30:09.712Z,20.30
2019-05-01T19:32:40.020Z,20.30
2019-05-01T19:35:09.890Z,20.30
2019-05-01T19:37:39.879Z,20.30
2019-05-01T19:40:10.466Z,20.10
2019-05-01T19:42:40.374Z,20.00
2019-05-01T19:45:10.571Z,19.90
2019-05-01T19:47:40.635Z,19.80
2019-05-01T19:50:12.156Z,19.70
2019-05-01T19:52:42.012Z,19.60
2019-05-01T19:55:11.809Z,19.50
2019-05-01T19:57:41.685Z,19.40
2019-05-01T20:00:12.234Z,19.40
2019-05-01T20:02:42.200Z,19.30
2019-05-01T20:05:12.115Z,19.30
2019-05-01T20:07:41.955Z,19.20
2019-05-01T20:10:12.021Z,19.20
2019-05-01T20:12:41.942Z,19.10
2019-05-01T20:15:11.883Z,19.10
2019-05-01T20:17:41.835Z,19.00
2019-05-01T20:20:11.793Z,19.00
2019-05-01T20:22:41.667Z,19.00
2019-05-01T20:25:14.772Z,18.90
2019-05-01T20:27:47.756Z,18.90
2019-05-01T20:30:15.786Z,18.90
2019-05-01T20:32:45.738Z,18.80
2019-05-01T20:35:15.532Z,18.80
2019-05-01T20:37:45.337Z,18.80
2019-05-01T20:40:18.011Z,18.70
2019-05-01T20:42:47.040Z,18.70
2019-05-01T20:45:18.218Z,18.70
2019-05-01T20:47:48.914Z,18.60
2019-05-01T20:50:20.549Z,18.50
2019-05-01T20:52:50.416Z,18.50
2019-05-01T20:55:20.354Z,18.50
2019-05-01T20:57:50.503Z,18.50
2019-05-01T21:00:22.578Z,18.50
2019-05-01T21:02:52.563Z,18.40
2019-05-01T21:05:26.915Z,18.40
2019-05-01T21:08:01.832Z,18.30
2019-05-01T21:10:52.435Z,18.30
2019-05-01T21:13:23.071Z,18.30
2019-05-01T21:15:56.425Z,18.20
2019-05-01T21:18:25.975Z,18.30
2019-05-01T21:20:56.525Z,18.30
2019-05-01T21:23:26.314Z,18.20
2019-05-01T21:25:56.343Z,18.10
2019-05-01T21:28:27.320Z,18.10
2019-05-01T21:30:57.224Z,18.10
2019-05-01T21:33:27.103Z,18.10
2019-05-01T21:35:59.578Z,18.10
2019-05-01T21:38:28.728Z,18.00
2019-05-01T21:40:58.749Z,18.00
2019-05-01T21:43:33.183Z,17.90
2019-05-01T21:46:00.184Z,17.90
2019-05-01T21:48:30.062Z,17.80
2019-05-01T21:51:03.332Z,17.80
2019-05-01T21:53:32.796Z,17.80
2019-05-01T21:56:06.126Z,17.70
2019-05-01T21:58:35.961Z,17.60
2019-05-01T22:01:07.048Z,17.60
2019-05-01T22:03:37.313Z,17.50
2019-05-01T22:06:11.161Z,17.50
2019-05-01T22:08:40.718Z,17.50
2019-05-01T22:11:10.186Z,17.50
2019-05-01T22:13:40.130Z,17.40
2019-05-01T22:16:11.576Z,17.50
2019-05-01T22:18:49.224Z,17.40
2019-05-01T22:21:29.560Z,17.30
2019-05-01T22:24:03.703Z,17.40
2019-05-01T22:26:38.938Z,17.40
2019-05-01T22:29:19.510Z,17.30
2019-05-01T22:31:52.867Z,17.30
2019-05-01T22:34:34.237Z,17.30
2019-05-01T22:37:04.096Z,17.20
2019-05-01T22:39:34.747Z,17.20
2019-05-01T22:42:04.690Z,17.20
2019-05-01T22:44:34.572Z,17.20
2019-05-01T22:47:05.280Z,17.10
2019-05-01T22:49:35.136Z,17.10
2019-05-01T22:52:05.011Z,17.10
2019-05-01T22:54:34.816Z,17.10
2019-05-01T22:57:04.932Z,17.00
2019-05-01T22:59:34.864Z,17.00
2019-05-01T23:02:09.233Z,17.00
2019-05-01T23:04:39.113Z,17.00
2019-05-01T23:07:11.767Z,16.90
2019-05-01T23:09:40.503Z,16.90
2019-05-01T23:12:10.454Z,16.90
2019-05-01T23:14:40.331Z,16.90
2019-05-01T23:17:12.235Z,16.90
2019-05-01T23:19:42.027Z,16.90
2019-05-01T23:22:12.050Z,16.90
2019-05-01T23:24:42.076Z,16.80
2019-05-01T23:27:12.316Z,16.80
2019-05-01T23:29:43.493Z,16.80
2019-05-01T23:32:13.528Z,16.80
2019-05-01T23:34:44.416Z,16.70
2019-05-01T23:37:14.236Z,16.70
2019-05-01T23:39:44.127Z,16.70
2019-05-01T23:42:14.449Z,16.60
2019-05-01T23:44:44.295Z,16.60
2019-05-01T23:47:15.239Z,16.50
2019-05-01T23:49:47.693Z,16.50
2019-05-01T23:52:16.556Z,16.50
2019-05-01T23:54:46.438Z,16.50
2019-05-01T23:57:18.859Z,16.50
2019-05-01T23:59:47.792Z,16.40
